Monday, June 25, 2018, 9:23 AM EDT
Back to Local

KHIE, Mt Washington Regional Airport

Location: Jefferson, NH, United States Lat: 44.367
Local Time: 9:23 AM EDT (13:23 GMT) Lon: -71.55
Time Zone: US/Eastern Elev: 1072 ft

Show me the last for .
Show Decoded

2018-06-25 08:52 METAR KHIE 251252Z AUTO 36011G17KT 10SM SCT020 16/11 A2997 RMK AO2 SLP150
                 T01560106 =
2018-06-25 08:48 METAR KHIE 251248Z AUTO 36007G17KT 10SM SCT020 16/10 A2997 RMK AO2 =
2018-06-25 07:52 METAR KHIE 251152Z AUTO 33005KT 10SM SCT016 OVC023 14/12 A2995 RMK AO2 SLP143
                 60006 70009 T01390117 10161 20133 53023 =
2018-06-25 07:15 METAR KHIE 251115Z AUTO 35006KT 10SM OVC016 13/11 A2993 RMK AO2 T01330111 =
2018-06-25 06:52 METAR KHIE 251052Z AUTO 33007KT 10SM OVC013 13/12 A2992 RMK AO2 SLP131 T01330117
                 =
2018-06-25 05:52 METAR KHIE 250952Z AUTO 32005KT 10SM BKN015 OVC021 14/12 A2988 RMK AO2 RAE41
                 SLP118 P0001 T01390122 =
2018-06-25 05:48 METAR KHIE 250948Z AUTO 32007KT 10SM OVC015 14/13 A2988 RMK AO2 RAE41 P0001 =
2018-06-25 05:34 METAR KHIE 250934Z AUTO 32005KT 10SM -RA BKN014 OVC022 14/13 A2988 RMK AO2 P0001
                 T01390128 =
2018-06-25 05:03 METAR KHIE 250903Z AUTO 32004KT 10SM -RA SCT004 OVC020 14/13 A2986 RMK AO2 P0001
                 T01390133 =
2018-06-25 04:52 METAR KHIE 250852Z AUTO 33006KT 3SM -RA BR BKN006 OVC018 14/13 A2986 RMK AO2
                 RAE11B16 CIG 003V009 SLP110 P0004 60005 T01440133 53003 =
2018-06-25 04:44 METAR KHIE 250844Z AUTO 31006KT 2 1/2SM -RA BR BKN004 OVC008 15/14 A2986 RMK AO2
                 RAE11B16 P0004 T01500144 =
2018-06-25 04:33 METAR KHIE 250833Z AUTO 33003KT 5SM -RA BR BKN008 OVC012 15/14 A2986 RMK AO2
                 RAE11B16 CIG 003V010 P0001 T01500144 =
2018-06-25 04:12 METAR KHIE 250812Z AUTO 00000KT 6SM BR FEW003 BKN014 OVC019 16/15 A2986 RMK AO2
                 RAE11 P0001 T01560150 =
2018-06-25 03:52 METAR KHIE 250752Z AUTO 00000KT 5SM -RA BR OVC018 16/15 A2986 RMK AO2 RAB39
                 SLP109 P0001 T01560150 =
2018-06-25 03:27 METAR KHIE 250727Z AUTO 00000KT 10SM SCT020 BKN026 OVC037 16/15 A2986 RMK AO2
                 T01560150 =
2018-06-25 03:02 METAR KHIE 250702Z AUTO 00000KT 10SM FEW010 BKN040 OVC046 16/15 A2985 RMK AO2
                 T01560150 =
2018-06-25 02:52 METAR KHIE 250652Z AUTO 00000KT 10SM SCT014 BKN023 OVC038 16/15 A2985 RMK AO2
                 SLP108 T01560150 =
2018-06-25 02:29 METAR KHIE 250629Z AUTO 00000KT 10SM BKN010 BKN022 OVC037 16/15 A2984 RMK AO2
                 T01560150 =
2018-06-25 01:52 METAR KHIE 250552Z AUTO 00000KT 10SM OVC008 16/16 A2985 RMK AO2 CIG 005V010
                 SLP109 60003 T01560156 10183 20156 56005 =
2018-06-25 01:22 METAR KHIE 250522Z AUTO 00000KT 5SM BR BKN007 OVC012 16/16 A2985 RMK AO2
                 T01560156 =
2018-06-25 01:13 METAR KHIE 250513Z AUTO 00000KT 2 1/2SM BR BKN007 OVC012 16/16 A2985 RMK AO2 CIG
                 006V010 T01560156 =
2018-06-25 00:52 METAR KHIE 250452Z AUTO 00000KT 6SM BR BKN013 BKN090 16/15 A2985 RMK AO2 RAE18
                 SLP109 P0000 T01560150 402000128 =
2018-06-25 00:18 METAR KHIE 250418Z AUTO 00000KT 10SM FEW008 OVC100 16/16 A2986 RMK AO2 RAE18
                 P0000 T01610156 =
2018-06-24 23:52 METAR KHIE 250352Z AUTO 00000KT 8SM -RA OVC100 16/16 A2986 RMK AO2 RAB08 SLP112
                 P0002 T01610156 =
2018-06-24 23:18 METAR KHIE 250318Z AUTO 00000KT 10SM -RA SCT019 BKN041 OVC100 17/16 A2986 RMK
                 AO2 RAB08 P0000 T01670161 =
2018-06-24 22:52 METAR KHIE 250252Z AUTO 00000KT 10SM OVC019 17/16 A2987 RMK AO2 RAB31E42 SLP114
                 P0000 60001 T01670161 53003 =
2018-06-24 22:37 METAR KHIE 250237Z AUTO 31003KT 10SM -RA BKN021 OVC055 17/16 A2987 RMK AO2 RAB31
                 P0000 T01670161 =
2018-06-24 21:52 METAR KHIE 250152Z AUTO 00000KT 10SM SCT049 BKN060 OVC100 17/16 A2986 RMK AO2
                 RAE02 SLP112 P0001 T01720161 =
2018-06-24 20:52 METAR KHIE 250052Z AUTO 00000KT 10SM -RA OVC047 17/17 A2985 RMK AO2 RAB11 SLP109
                 P0000 T01720167 =
2018-06-24 20:14 METAR KHIE 250014Z AUTO 00000KT 10SM -RA SCT022 BKN060 OVC090 18/17 A2985 RMK
                 AO2 RAB11 P0000 T01780167 =
2018-06-24 19:52 METAR KHIE 242352Z AUTO 00000KT 10SM OVC023 18/17 A2986 RMK AO2 SLP110 T01830167
                 10200 20178 53007 =
2018-06-24 19:35 METAR KHIE 242335Z AUTO 00000KT 10SM BKN025 BKN046 OVC090 18/17 A2985 RMK AO2
                 T01830167 =
2018-06-24 18:52 METAR KHIE 242252Z AUTO 00000KT 10SM BKN048 OVC070 19/16 A2984 RMK AO2 SLP106
                 T01890156 =
2018-06-24 17:52 METAR KHIE 242152Z AUTO 00000KT 10SM OVC065 19/15 A2984 RMK AO2 SLP106 T01940150
                 =
2018-06-24 16:59 METAR KHIE 242059Z AUTO 00000KT 10SM SCT019 SCT023 OVC060 19/14 A2984 RMK AO2
                 T01940144 =
2018-06-24 16:52 METAR KHIE 242052Z AUTO 00000KT 10SM BKN019 OVC055 19/15 A2983 RMK AO2 SLP103
                 T01940150 51001 =
2018-06-24 16:03 METAR KHIE 242003Z AUTO 00000KT 10SM BKN024 OVC030 19/15 A2984 RMK AO2 T01890150
                 =
2018-06-24 15:52 METAR KHIE 241952Z AUTO 00000KT 10SM SCT024 BKN030 OVC038 19/15 A2983 RMK AO2
                 SLP102 T01890150 =
2018-06-24 15:25 METAR KHIE 241925Z AUTO 00000KT 10SM FEW013 SCT027 OVC037 18/16 A2984 RMK AO2
                 T01780156 =
2018-06-24 15:17 METAR KHIE 241917Z AUTO 00000KT 10SM SCT013 BKN026 OVC035 18/16 A2984 RMK AO2
                 T01830156 =
2018-06-24 14:52 METAR KHIE 241852Z AUTO VRB05KT 10SM OVC014 18/15 A2984 RMK AO2 SLP104 T01830150
                 =
2018-06-24 14:32 METAR KHIE 241832Z AUTO 00000KT 10SM SCT012 BKN019 OVC032 18/14 A2984 RMK AO2
                 T01830144 =
2018-06-24 14:10 METAR KHIE 241810Z AUTO 35003KT 10SM SCT011 OVC031 18/15 A2983 RMK AO2 T01830150
                 =
2018-06-24 14:00 METAR KHIE 241800Z AUTO 34003KT 10SM BKN011 OVC029 18/15 A2983 RMK AO2 T01830150
                 =
2018-06-24 13:52 METAR KHIE 241752Z AUTO 00000KT 10SM SCT012 OVC029 18/14 A2983 RMK AO2 SLP102
                 T01780144 10178 20139 58002 =
2018-06-24 12:52 METAR KHIE 241652Z AUTO 30003KT 10SM BKN011 OVC029 17/14 A2984 RMK AO2 SLP106
                 T01720144 =
2018-06-24 12:13 METAR KHIE 241613Z AUTO 00000KT 10SM OVC010 17/14 A2984 RMK AO2 CIG 008V013
                 T01670144 =
2018-06-24 11:52 METAR KHIE 241552Z AUTO 00000KT 10SM OVC009 17/14 A2984 RMK AO2 CIG 005V012
                 SLP105 T01670144 =
2018-06-24 11:49 METAR KHIE 241549Z AUTO 00000KT 10SM BKN006 OVC011 17/14 A2984 RMK AO2 =
2018-06-24 11:32 METAR KHIE 241532Z AUTO 00000KT 10SM BKN005 OVC015 16/14 A2983 RMK AO2 T01610144
                 =
2018-06-24 11:22 METAR KHIE 241522Z AUTO 00000KT 8SM BKN006 BKN016 OVC024 16/14 A2984 RMK AO2
                 T01560144 =
2018-06-24 11:12 METAR KHIE 241512Z AUTO 00000KT 4SM BR BKN005 OVC016 16/14 A2984 RMK AO2
                 T01560139 =
2018-06-24 10:52 METAR KHIE 241452Z AUTO 00000KT 2SM BR OVC005 15/14 A2984 RMK AO2 SLP106
                 T01500139 51012 =
2018-06-24 10:27 METAR KHIE 241427Z AUTO 00000KT 6SM BR BKN005 OVC010 15/14 A2984 RMK AO2
                 T01500139 =
2018-06-24 09:52 METAR KHIE 241352Z AUTO 00000KT 8SM BKN007 OVC015 15/13 A2983 RMK AO2 SLP104
                 T01500128 =
2018-06-24 09:23 METAR KHIE 241323Z AUTO 00000KT 10SM FEW006 OVC014 14/13 A2983 RMK AO2 T01440133
                 =

Support USWX by starting your Amazon purchase here.